createdAt,value
2023-03-17T00:04:57.342Z,7057.15234
2023-03-17T00:19:59.642Z,3915.28687
2023-03-17T00:35:01.861Z,3074.66675
2023-03-17T00:50:04.088Z,2459.7334
2023-03-17T01:05:07.052Z,1777.60107
2023-03-17T01:20:09.636Z,1152.52454
2023-03-17T01:35:11.859Z,633.9519
2023-03-17T01:50:14.086Z,234.56221
2023-03-17T02:05:16.308Z,48.18034
2023-03-17T02:20:18.574Z,3.80371
2023-03-17T02:35:21.032Z,0
2023-03-17T02:50:23.265Z,0
2023-03-17T03:05:25.754Z,0
2023-03-17T03:20:28.400Z,0
2023-03-17T03:35:30.911Z,0
2023-03-17T03:50:33.383Z,0
2023-03-17T04:05:35.583Z,0
2023-03-17T04:20:37.884Z,0
2023-03-17T04:35:40.200Z,0
2023-03-17T04:50:42.627Z,0
2023-03-17T05:05:44.918Z,0
2023-03-17T05:20:47.301Z,0
2023-03-17T05:35:49.794Z,0
2023-03-17T05:50:52.238Z,0
2023-03-17T06:05:54.535Z,0
2023-03-17T06:20:56.744Z,0
2023-03-17T06:35:59.853Z,0
2023-03-17T06:51:02.139Z,0
2023-03-17T07:06:04.373Z,0
2023-03-17T07:21:06.853Z,0
2023-03-17T07:36:09.212Z,0
2023-03-17T07:51:11.547Z,0
2023-03-17T08:06:13.851Z,0
2023-03-17T08:21:17.001Z,0
2023-03-17T08:36:19.270Z,0
2023-03-17T08:51:24.148Z,0
2023-03-17T09:06:26.858Z,0
2023-03-17T09:21:29.326Z,0
2023-03-17T09:36:31.576Z,0
2023-03-17T09:51:33.834Z,0
2023-03-17T10:06:36.085Z,0
2023-03-17T10:21:38.362Z,0
2023-03-17T10:36:40.584Z,0
2023-03-17T10:51:42.838Z,0
2023-03-17T11:06:45.109Z,0
2023-03-17T11:21:47.373Z,0
2023-03-17T11:36:49.624Z,0
2023-03-17T11:51:51.863Z,0
2023-03-17T12:06:55.437Z,0
2023-03-17T12:21:58.394Z,0
2023-03-17T12:37:00.755Z,0
2023-03-17T12:52:02.945Z,0
2023-03-17T13:07:05.231Z,0
2023-03-17T13:22:07.507Z,0
2023-03-17T13:37:09.787Z,10.14323
2023-03-17T13:52:12.013Z,111.57554
2023-03-17T14:07:14.246Z,438.6947
2023-03-17T14:22:16.551Z,1228.59875
2023-03-17T14:37:18.942Z,2160.50806
2023-03-17T14:52:21.181Z,3906.41162
2023-03-17T15:07:23.386Z,8336.46777
2023-03-17T15:22:25.797Z,10167.32031
2023-03-17T15:37:28.033Z,16276.08105
2023-03-17T15:52:30.311Z,20233.20898
2023-03-17T16:07:32.591Z,21323.60547
2023-03-17T16:22:34.789Z,32211.0957
2023-03-17T16:37:37.033Z,23719.94531
2023-03-17T16:52:39.332Z,19045.18359
2023-03-17T17:07:41.723Z,21247.53125
2023-03-17T17:22:43.988Z,13489.22852
2023-03-17T17:37:46.500Z,12013.38867
2023-03-17T17:52:48.721Z,11536.65625
2023-03-17T18:07:51.072Z,10231.9834
2023-03-17T18:22:58.693Z,10114.06836
2023-03-17T19:08:25.434Z,9395.16699
2023-03-17T19:23:27.669Z,9278.52051
2023-03-17T19:38:29.888Z,9226.53613
2023-03-17T19:53:32.147Z,9218.92871
2023-03-17T20:08:34.405Z,9187.23145
2023-03-17T20:23:36.609Z,8762.4834
2023-03-17T20:38:38.863Z,8361.8252
2023-03-17T20:53:41.123Z,8552.01074
2023-03-17T21:08:43.330Z,8470.86523
2023-03-17T21:23:45.602Z,8636.96094
2023-03-17T21:38:47.912Z,9142.85449
2023-03-17T21:53:50.106Z,8837.28906
2023-03-17T22:08:52.357Z,9464.90234
2023-03-17T22:23:54.872Z,9757.78809
2023-03-17T22:38:57.101Z,9666.49902
2023-03-17T22:53:59.491Z,10235.78711
2023-03-17T23:09:01.763Z,10092.51465
2023-03-17T23:24:03.997Z,9949.24121
2023-03-17T23:39:06.343Z,9581.54883
2023-03-17T23:54:08.569Z,8579.90527
